sensor_id;sensor_type;location;lat;lon;timestamp;P1;durP1;ratioP1;P2;durP2;ratioP2
21012;SDS011;10664;53.582;9.712;2022-11-06T00:00:41;4.60;;;4.20;;
21012;SDS011;10664;53.582;9.712;2022-11-06T00:03:07;4.23;;;3.83;;
21012;SDS011;10664;53.582;9.712;2022-11-06T00:05:33;4.20;;;3.80;;
21012;SDS011;10664;53.582;9.712;2022-11-06T00:08:29;3.87;;;3.47;;
21012;SDS011;10664;53.582;9.712;2022-11-06T00:10:55;3.80;;;3.40;;
21012;SDS011;10664;53.582;9.712;2022-11-06T00:13:21;4.10;;;3.70;;
21012;SDS011;10664;53.582;9.712;2022-11-06T00:15:47;4.03;;;3.63;;
21012;SDS011;10664;53.582;9.712;2022-11-06T00:18:13;4.10;;;3.70;;
21012;SDS011;10664;53.582;9.712;2022-11-06T00:20:39;4.17;;;3.77;;
21012;SDS011;10664;53.582;9.712;2022-11-06T00:23:05;5.00;;;3.50;;
21012;SDS011;10664;53.582;9.712;2022-11-06T00:25:31;3.90;;;3.20;;
21012;SDS011;10664;53.582;9.712;2022-11-06T00:27:57;4.40;;;3.60;;
21012;SDS011;10664;53.582;9.712;2022-11-06T00:30:23;4.03;;;3.60;;
21012;SDS011;10664;53.582;9.712;2022-11-06T00:32:49;3.87;;;3.50;;
21012;SDS011;10664;53.582;9.712;2022-11-06T00:35:15;4.30;;;3.90;;
21012;SDS011;10664;53.582;9.712;2022-11-06T00:37:41;3.73;;;3.03;;
21012;SDS011;10664;53.582;9.712;2022-11-06T00:40:07;3.87;;;3.30;;
21012;SDS011;10664;53.582;9.712;2022-11-06T00:42:33;3.87;;;3.53;;
21012;SDS011;10664;53.582;9.712;2022-11-06T00:44:59;4.73;;;3.60;;
21012;SDS011;10664;53.582;9.712;2022-11-06T00:47:25;4.20;;;3.80;;
21012;SDS011;10664;53.582;9.712;2022-11-06T00:49:52;3.87;;;3.47;;
21012;SDS011;10664;53.582;9.712;2022-11-06T00:52:18;3.63;;;3.30;;
21012;SDS011;10664;53.582;9.712;2022-11-06T00:54:43;5.07;;;3.50;;
21012;SDS011;10664;53.582;9.712;2022-11-06T00:57:09;3.70;;;3.40;;
21012;SDS011;10664;53.582;9.712;2022-11-06T00:59:35;3.77;;;3.37;;
21012;SDS011;10664;53.582;9.712;2022-11-06T01:02:01;3.90;;;3.60;;
21012;SDS011;10664;53.582;9.712;2022-11-06T01:04:27;4.43;;;3.57;;
21012;SDS011;10664;53.582;9.712;2022-11-06T01:06:54;3.70;;;3.40;;
21012;SDS011;10664;53.582;9.712;2022-11-06T01:09:25;3.63;;;3.23;;
21012;SDS011;10664;53.582;9.712;2022-11-06T01:11:52;3.20;;;2.90;;
21012;SDS011;10664;53.582;9.712;2022-11-06T01:14:19;3.80;;;3.50;;
21012;SDS011;10664;53.582;9.712;2022-11-06T01:16:45;3.50;;;3.20;;
21012;SDS011;10664;53.582;9.712;2022-11-06T01:19:12;3.20;;;2.90;;
21012;SDS011;10664;53.582;9.712;2022-11-06T01:21:39;3.27;;;2.93;;
21012;SDS011;10664;53.582;9.712;2022-11-06T01:24:07;3.83;;;3.43;;
21012;SDS011;10664;53.582;9.712;2022-11-06T01:26:34;4.10;;;3.10;;
21012;SDS011;10664;53.582;9.712;2022-11-06T01:29:01;3.33;;;3.03;;
21012;SDS011;10664;53.582;9.712;2022-11-06T01:31:28;3.73;;;3.30;;
21012;SDS011;10664;53.582;9.712;2022-11-06T01:33:56;3.53;;;3.17;;
21012;SDS011;10664;53.582;9.712;2022-11-06T01:36:22;3.93;;;3.53;;
21012;SDS011;10664;53.582;9.712;2022-11-06T01:38:49;3.73;;;3.13;;
21012;SDS011;10664;53.582;9.712;2022-11-06T01:41:22;3.83;;;3.37;;
21012;SDS011;10664;53.582;9.712;2022-11-06T01:43:53;3.90;;;3.27;;
21012;SDS011;10664;53.582;9.712;2022-11-06T01:46:20;3.53;;;2.97;;
21012;SDS011;10664;53.582;9.712;2022-11-06T01:48:48;3.77;;;3.23;;
21012;SDS011;10664;53.582;9.712;2022-11-06T01:51:15;3.70;;;3.33;;
21012;SDS011;10664;53.582;9.712;2022-11-06T01:53:41;3.33;;;3.03;;
21012;SDS011;10664;53.582;9.712;2022-11-06T01:56:08;3.97;;;3.23;;
21012;SDS011;10664;53.582;9.712;2022-11-06T01:58:36;4.23;;;3.23;;
21012;SDS011;10664;53.582;9.712;2022-11-06T02:01:02;3.70;;;3.10;;
21012;SDS011;10664;53.582;9.712;2022-11-06T02:03:28;3.50;;;3.20;;
21012;SDS011;10664;53.582;9.712;2022-11-06T02:05:55;3.40;;;3.10;;
21012;SDS011;10664;53.582;9.712;2022-11-06T02:08:21;3.53;;;3.23;;
21012;SDS011;10664;53.582;9.712;2022-11-06T02:10:48;3.33;;;3.00;;
21012;SDS011;10664;53.582;9.712;2022-11-06T02:13:26;4.50;;;3.30;;
21012;SDS011;10664;53.582;9.712;2022-11-06T02:29:06;3.60;;;3.23;;
21012;SDS011;10664;53.582;9.712;2022-11-06T02:31:34;4.20;;;3.40;;
21012;SDS011;10664;53.582;9.712;2022-11-06T02:34:03;4.00;;;3.60;;
21012;SDS011;10664;53.582;9.712;2022-11-06T02:36:31;4.03;;;3.60;;
21012;SDS011;10664;53.582;9.712;2022-11-06T02:39:02;4.30;;;3.30;;
21012;SDS011;10664;53.582;9.712;2022-11-06T02:41:33;4.47;;;3.60;;
21012;SDS011;10664;53.582;9.712;2022-11-06T02:43:59;4.80;;;3.40;;
21012;SDS011;10664;53.582;9.712;2022-11-06T02:46:37;4.73;;;3.13;;
21012;SDS011;10664;53.582;9.712;2022-11-06T02:49:12;3.90;;;3.43;;
21012;SDS011;10664;53.582;9.712;2022-11-06T02:51:41;3.70;;;3.40;;
21012;SDS011;10664;53.582;9.712;2022-11-06T02:54:08;3.50;;;3.17;;
21012;SDS011;10664;53.582;9.712;2022-11-06T02:56:37;4.17;;;3.33;;
21012;SDS011;10664;53.582;9.712;2022-11-06T02:59:09;3.50;;;3.20;;
21012;SDS011;10664;53.582;9.712;2022-11-06T03:01:37;4.03;;;3.37;;
21012;SDS011;10664;53.582;9.712;2022-11-06T03:04:07;3.70;;;3.40;;
21012;SDS011;10664;53.582;9.712;2022-11-06T03:06:37;3.90;;;3.60;;
21012;SDS011;10664;53.582;9.712;2022-11-06T03:09:05;3.50;;;3.20;;
21012;SDS011;10664;53.582;9.712;2022-11-06T03:11:33;3.50;;;3.03;;
21012;SDS011;10664;53.582;9.712;2022-11-06T03:24:34;4.53;;;3.70;;
21012;SDS011;10664;53.582;9.712;2022-11-06T03:27:05;3.80;;;3.50;;
21012;SDS011;10664;53.582;9.712;2022-11-06T03:29:38;4.57;;;3.50;;
21012;SDS011;10664;53.582;9.712;2022-11-06T03:34:39;3.43;;;3.13;;
21012;SDS011;10664;53.582;9.712;2022-11-06T03:37:12;3.87;;;3.57;;
21012;SDS011;10664;53.582;9.712;2022-11-06T03:39:41;4.33;;;3.53;;
21012;SDS011;10664;53.582;9.712;2022-11-06T03:42:10;3.73;;;3.43;;
21012;SDS011;10664;53.582;9.712;2022-11-06T03:44:41;4.60;;;3.27;;
21012;SDS011;10664;53.582;9.712;2022-11-06T03:47:12;3.97;;;3.50;;
21012;SDS011;10664;53.582;9.712;2022-11-06T03:49:44;3.93;;;3.50;;
21012;SDS011;10664;53.582;9.712;2022-11-06T03:52:12;3.73;;;3.20;;
21012;SDS011;10664;53.582;9.712;2022-11-06T03:54:57;4.63;;;3.70;;
21012;SDS011;10664;53.582;9.712;2022-11-06T03:57:27;3.63;;;3.33;;
21012;SDS011;10664;53.582;9.712;2022-11-06T03:59:54;3.53;;;3.23;;
21012;SDS011;10664;53.582;9.712;2022-11-06T04:02:24;4.57;;;3.50;;
21012;SDS011;10664;53.582;9.712;2022-11-06T04:04:55;4.10;;;3.20;;
21012;SDS011;10664;53.582;9.712;2022-11-06T04:07:23;4.03;;;3.67;;
21012;SDS011;10664;53.582;9.712;2022-11-06T04:09:51;3.50;;;3.20;;
21012;SDS011;10664;53.582;9.712;2022-11-06T04:12:38;5.13;;;3.70;;
21012;SDS011;10664;53.582;9.712;2022-11-06T04:15:22;4.10;;;3.27;;
21012;SDS011;10664;53.582;9.712;2022-11-06T04:17:49;4.13;;;3.73;;
21012;SDS011;10664;53.582;9.712;2022-11-06T04:20:16;3.50;;;3.20;;
21012;SDS011;10664;53.582;9.712;2022-11-06T04:23:07;3.70;;;3.40;;
21012;SDS011;10664;53.582;9.712;2022-11-06T04:28:35;3.77;;;3.00;;
21012;SDS011;10664;53.582;9.712;2022-11-06T04:31:08;4.90;;;3.60;;
21012;SDS011;10664;53.582;9.712;2022-11-06T04:33:56;4.37;;;3.17;;
21012;SDS011;10664;53.582;9.712;2022-11-06T04:36:32;3.23;;;2.93;;
21012;SDS011;10664;53.582;9.712;2022-11-06T04:39:11;4.13;;;3.57;;
21012;SDS011;10664;53.582;9.712;2022-11-06T04:41:40;3.83;;;3.47;;
21012;SDS011;10664;53.582;9.712;2022-11-06T04:44:14;3.23;;;2.90;;
21012;SDS011;10664;53.582;9.712;2022-11-06T04:46:44;3.93;;;3.33;;
21012;SDS011;10664;53.582;9.712;2022-11-06T04:49:11;4.17;;;3.70;;
21012;SDS011;10664;53.582;9.712;2022-11-06T04:51:38;3.67;;;3.37;;
21012;SDS011;10664;53.582;9.712;2022-11-06T04:54:05;3.50;;;3.20;;
21012;SDS011;10664;53.582;9.712;2022-11-06T04:56:32;3.57;;;3.13;;
21012;SDS011;10664;53.582;9.712;2022-11-06T04:58:59;5.23;;;3.37;;
21012;SDS011;10664;53.582;9.712;2022-11-06T05:01:25;3.70;;;3.40;;
21012;SDS011;10664;53.582;9.712;2022-11-06T05:03:51;4.23;;;3.40;;
21012;SDS011;10664;53.582;9.712;2022-11-06T05:06:17;3.83;;;3.30;;
21012;SDS011;10664;53.582;9.712;2022-11-06T05:08:43;3.80;;;3.00;;
21012;SDS011;10664;53.582;9.712;2022-11-06T05:11:10;3.43;;;2.90;;
21012;SDS011;10664;53.582;9.712;2022-11-06T05:13:36;4.87;;;3.37;;
21012;SDS011;10664;53.582;9.712;2022-11-06T05:16:02;3.30;;;2.90;;
21012;SDS011;10664;53.582;9.712;2022-11-06T05:18:28;3.20;;;2.90;;
21012;SDS011;10664;53.582;9.712;2022-11-06T05:20:57;3.27;;;2.97;;
21012;SDS011;10664;53.582;9.712;2022-11-06T05:23:43;3.53;;;3.20;;
21012;SDS011;10664;53.582;9.712;2022-11-06T05:26:09;3.73;;;3.03;;
21012;SDS011;10664;53.582;9.712;2022-11-06T05:28:35;5.33;;;3.07;;
21012;SDS011;10664;53.582;9.712;2022-11-06T05:31:01;3.00;;;2.80;;
21012;SDS011;10664;53.582;9.712;2022-11-06T05:33:27;3.60;;;2.90;;
21012;SDS011;10664;53.582;9.712;2022-11-06T05:35:53;3.77;;;2.73;;
21012;SDS011;10664;53.582;9.712;2022-11-06T05:38:18;2.83;;;2.63;;
21012;SDS011;10664;53.582;9.712;2022-11-06T05:40:44;3.53;;;2.90;;
21012;SDS011;10664;53.582;9.712;2022-11-06T05:43:11;3.60;;;3.00;;
21012;SDS011;10664;53.582;9.712;2022-11-06T05:45:37;3.20;;;2.90;;
21012;SDS011;10664;53.582;9.712;2022-11-06T05:48:03;3.33;;;3.03;;
21012;SDS011;10664;53.582;9.712;2022-11-06T05:50:29;3.53;;;3.23;;
21012;SDS011;10664;53.582;9.712;2022-11-06T05:52:55;3.83;;;3.20;;
21012;SDS011;10664;53.582;9.712;2022-11-06T05:55:21;3.80;;;3.10;;
21012;SDS011;10664;53.582;9.712;2022-11-06T05:57:47;3.77;;;2.87;;
21012;SDS011;10664;53.582;9.712;2022-11-06T06:00:13;4.60;;;3.40;;
21012;SDS011;10664;53.582;9.712;2022-11-06T06:02:39;4.20;;;3.27;;
21012;SDS011;10664;53.582;9.712;2022-11-06T06:05:05;5.43;;;3.60;;
21012;SDS011;10664;53.582;9.712;2022-11-06T06:07:31;3.97;;;3.57;;
21012;SDS011;10664;53.582;9.712;2022-11-06T06:09:57;4.10;;;3.37;;
21012;SDS011;10664;53.582;9.712;2022-11-06T06:12:23;5.10;;;3.37;;
21012;SDS011;10664;53.582;9.712;2022-11-06T06:14:50;4.30;;;3.40;;
21012;SDS011;10664;53.582;9.712;2022-11-06T06:17:17;4.17;;;3.70;;
21012;SDS011;10664;53.582;9.712;2022-11-06T06:19:42;5.80;;;3.50;;
21012;SDS011;10664;53.582;9.712;2022-11-06T06:22:09;4.40;;;3.27;;
21012;SDS011;10664;53.582;9.712;2022-11-06T06:24:35;4.10;;;3.53;;
21012;SDS011;10664;53.582;9.712;2022-11-06T06:27:01;3.27;;;2.90;;
21012;SDS011;10664;53.582;9.712;2022-11-06T06:29:27;4.07;;;3.50;;
21012;SDS011;10664;53.582;9.712;2022-11-06T06:31:53;4.03;;;3.27;;
21012;SDS011;10664;53.582;9.712;2022-11-06T06:34:19;3.33;;;3.03;;
21012;SDS011;10664;53.582;9.712;2022-11-06T06:36:51;3.47;;;3.17;;
21012;SDS011;10664;53.582;9.712;2022-11-06T06:39:18;4.03;;;3.37;;
21012;SDS011;10664;53.582;9.712;2022-11-06T06:41:45;3.07;;;2.80;;
21012;SDS011;10664;53.582;9.712;2022-11-06T06:44:11;4.97;;;3.47;;
21012;SDS011;10664;53.582;9.712;2022-11-06T06:46:37;4.07;;;3.20;;
21012;SDS011;10664;53.582;9.712;2022-11-06T06:49:03;3.77;;;3.07;;
21012;SDS011;10664;53.582;9.712;2022-11-06T06:51:29;3.77;;;3.20;;
21012;SDS011;10664;53.582;9.712;2022-11-06T06:53:55;3.50;;;3.20;;
21012;SDS011;10664;53.582;9.712;2022-11-06T06:56:21;4.87;;;3.50;;
21012;SDS011;10664;53.582;9.712;2022-11-06T06:58:47;3.80;;;3.27;;
21012;SDS011;10664;53.582;9.712;2022-11-06T07:01:13;4.17;;;3.17;;
21012;SDS011;10664;53.582;9.712;2022-11-06T07:03:39;3.57;;;3.27;;
21012;SDS011;10664;53.582;9.712;2022-11-06T07:06:06;3.50;;;3.20;;
21012;SDS011;10664;53.582;9.712;2022-11-06T07:08:32;3.60;;;3.30;;
21012;SDS011;10664;53.582;9.712;2022-11-06T07:10:58;3.40;;;3.10;;
21012;SDS011;10664;53.582;9.712;2022-11-06T07:13:25;3.60;;;3.30;;
21012;SDS011;10664;53.582;9.712;2022-11-06T07:15:51;3.67;;;3.37;;
21012;SDS011;10664;53.582;9.712;2022-11-06T07:18:17;4.00;;;3.57;;
21012;SDS011;10664;53.582;9.712;2022-11-06T07:20:43;3.87;;;3.47;;
21012;SDS011;10664;53.582;9.712;2022-11-06T07:23:09;3.93;;;3.57;;
21012;SDS011;10664;53.582;9.712;2022-11-06T07:25:35;3.50;;;3.20;;
21012;SDS011;10664;53.582;9.712;2022-11-06T07:28:01;5.03;;;3.60;;
21012;SDS011;10664;53.582;9.712;2022-11-06T07:30:27;4.10;;;3.20;;
21012;SDS011;10664;53.582;9.712;2022-11-06T07:32:53;3.70;;;3.30;;
21012;SDS011;10664;53.582;9.712;2022-11-06T07:35:20;3.33;;;3.03;;
21012;SDS011;10664;53.582;9.712;2022-11-06T07:37:46;3.33;;;3.03;;
21012;SDS011;10664;53.582;9.712;2022-11-06T07:40:12;4.20;;;3.70;;
21012;SDS011;10664;53.582;9.712;2022-11-06T07:42:38;4.27;;;3.50;;
21012;SDS011;10664;53.582;9.712;2022-11-06T07:45:04;3.70;;;2.90;;
21012;SDS011;10664;53.582;9.712;2022-11-06T07:47:31;3.47;;;3.10;;
21012;SDS011;10664;53.582;9.712;2022-11-06T07:49:57;3.63;;;3.33;;
21012;SDS011;10664;53.582;9.712;2022-11-06T07:52:23;3.03;;;2.83;;
21012;SDS011;10664;53.582;9.712;2022-11-06T07:54:49;3.13;;;2.83;;
21012;SDS011;10664;53.582;9.712;2022-11-06T07:57:15;3.80;;;3.07;;
21012;SDS011;10664;53.582;9.712;2022-11-06T07:59:40;3.30;;;3.00;;
21012;SDS011;10664;53.582;9.712;2022-11-06T08:02:09;3.73;;;2.90;;
21012;SDS011;10664;53.582;9.712;2022-11-06T08:04:36;3.10;;;2.80;;
21012;SDS011;10664;53.582;9.712;2022-11-06T08:07:02;2.57;;;2.37;;
21012;SDS011;10664;53.582;9.712;2022-11-06T08:09:28;2.67;;;2.47;;
21012;SDS011;10664;53.582;9.712;2022-11-06T08:11:54;3.47;;;2.83;;
21012;SDS011;10664;53.582;9.712;2022-11-06T08:14:20;3.27;;;3.00;;
21012;SDS011;10664;53.582;9.712;2022-11-06T08:16:46;3.77;;;2.60;;
21012;SDS011;10664;53.582;9.712;2022-11-06T08:19:12;3.63;;;3.33;;
21012;SDS011;10664;53.582;9.712;2022-11-06T08:21:38;4.37;;;3.00;;
21012;SDS011;10664;53.582;9.712;2022-11-06T08:24:04;3.17;;;2.87;;
21012;SDS011;10664;53.582;9.712;2022-11-06T08:26:30;3.33;;;2.83;;
21012;SDS011;10664;53.582;9.712;2022-11-06T08:28:56;276.73;;;161.57;;
21012;SDS011;10664;53.582;9.712;2022-11-06T08:31:22;621.53;;;493.90;;
21012;SDS011;10664;53.582;9.712;2022-11-06T08:33:48;948.03;;;744.93;;
21012;SDS011;10664;53.582;9.712;2022-11-06T08:36:14;905.40;;;723.80;;
21012;SDS011;10664;53.582;9.712;2022-11-06T08:38:40;716.53;;;594.33;;
21012;SDS011;10664;53.582;9.712;2022-11-06T08:41:08;569.97;;;470.27;;
21012;SDS011;10664;53.582;9.712;2022-11-06T08:43:34;474.70;;;370.43;;
21012;SDS011;10664;53.582;9.712;2022-11-06T08:46:01;382.90;;;276.67;;
21012;SDS011;10664;53.582;9.712;2022-11-06T08:48:27;275.13;;;200.60;;
21012;SDS011;10664;53.582;9.712;2022-11-06T08:50:53;178.83;;;129.67;;
21012;SDS011;10664;53.582;9.712;2022-11-06T08:53:19;112.73;;;82.87;;
21012;SDS011;10664;53.582;9.712;2022-11-06T08:55:45;71.10;;;52.87;;
21012;SDS011;10664;53.582;9.712;2022-11-06T08:58:11;47.83;;;37.00;;
21012;SDS011;10664;53.582;9.712;2022-11-06T09:00:38;30.90;;;25.10;;
21012;SDS011;10664;53.582;9.712;2022-11-06T09:03:05;22.70;;;17.83;;
21012;SDS011;10664;53.582;9.712;2022-11-06T09:05:31;16.80;;;12.93;;
21012;SDS011;10664;53.582;9.712;2022-11-06T09:07:58;12.70;;;10.40;;
21012;SDS011;10664;53.582;9.712;2022-11-06T09:10:24;9.23;;;8.17;;
21012;SDS011;10664;53.582;9.712;2022-11-06T09:12:51;9.43;;;7.43;;
21012;SDS011;10664;53.582;9.712;2022-11-06T09:15:17;8.27;;;5.90;;
21012;SDS011;10664;53.582;9.712;2022-11-06T09:17:47;5.93;;;4.70;;
21012;SDS011;10664;53.582;9.712;2022-11-06T09:20:13;4.23;;;3.63;;
21012;SDS011;10664;53.582;9.712;2022-11-06T09:22:39;3.60;;;3.30;;
21012;SDS011;10664;53.582;9.712;2022-11-06T09:25:06;4.90;;;3.70;;
21012;SDS011;10664;53.582;9.712;2022-11-06T09:27:32;4.57;;;3.73;;
21012;SDS011;10664;53.582;9.712;2022-11-06T09:29:58;4.37;;;3.93;;
21012;SDS011;10664;53.582;9.712;2022-11-06T09:32:24;3.90;;;3.27;;
21012;SDS011;10664;53.582;9.712;2022-11-06T09:34:50;4.27;;;3.23;;
21012;SDS011;10664;53.582;9.712;2022-11-06T09:37:16;4.33;;;3.20;;
21012;SDS011;10664;53.582;9.712;2022-11-06T09:39:42;3.13;;;2.73;;
21012;SDS011;10664;53.582;9.712;2022-11-06T09:42:20;3.40;;;2.70;;
21012;SDS011;10664;53.582;9.712;2022-11-06T09:47:26;2.60;;;2.40;;
21012;SDS011;10664;53.582;9.712;2022-11-06T09:49:53;3.63;;;2.60;;
21012;SDS011;10664;53.582;9.712;2022-11-06T09:52:37;3.00;;;2.40;;
21012;SDS011;10664;53.582;9.712;2022-11-06T09:55:13;3.67;;;2.80;;
21012;SDS011;10664;53.582;9.712;2022-11-06T09:57:45;3.03;;;2.60;;
21012;SDS011;10664;53.582;9.712;2022-11-06T10:00:12;2.90;;;2.40;;
21012;SDS011;10664;53.582;9.712;2022-11-06T10:02:49;2.60;;;2.40;;
21012;SDS011;10664;53.582;9.712;2022-11-06T10:05:23;2.83;;;2.50;;
21012;SDS011;10664;53.582;9.712;2022-11-06T10:07:51;2.60;;;2.10;;
21012;SDS011;10664;53.582;9.712;2022-11-06T10:10:18;2.20;;;2.00;;
21012;SDS011;10664;53.582;9.712;2022-11-06T10:16:13;3.63;;;2.47;;
21012;SDS011;10664;53.582;9.712;2022-11-06T10:18:09;3.40;;;2.50;;
21012;SDS011;10664;53.582;9.712;2022-11-06T10:23:17;2.40;;;2.13;;
21012;SDS011;10664;53.582;9.712;2022-11-06T10:26:31;3.27;;;2.33;;
21012;SDS011;10664;53.582;9.712;2022-11-06T10:31:25;2.83;;;1.97;;
21012;SDS011;10664;53.582;9.712;2022-11-06T10:36:30;3.60;;;2.37;;
21012;SDS011;10664;53.582;9.712;2022-11-06T10:38:59;2.37;;;2.00;;
21012;SDS011;10664;53.582;9.712;2022-11-06T10:41:27;2.37;;;1.93;;
21012;SDS011;10664;53.582;9.712;2022-11-06T10:43:57;2.20;;;1.97;;
21012;SDS011;10664;53.582;9.712;2022-11-06T10:46:27;2.43;;;1.80;;
21012;SDS011;10664;53.582;9.712;2022-11-06T10:48:58;2.23;;;1.73;;
21012;SDS011;10664;53.582;9.712;2022-11-06T10:54:17;2.30;;;1.90;;
21012;SDS011;10664;53.582;9.712;2022-11-06T10:59:11;2.07;;;1.90;;
21012;SDS011;10664;53.582;9.712;2022-11-06T11:01:38;2.10;;;1.77;;
21012;SDS011;10664;53.582;9.712;2022-11-06T11:04:04;2.07;;;1.53;;
21012;SDS011;10664;53.582;9.712;2022-11-06T11:06:30;2.87;;;1.90;;
21012;SDS011;10664;53.582;9.712;2022-11-06T11:08:56;2.00;;;1.80;;
21012;SDS011;10664;53.582;9.712;2022-11-06T11:11:25;2.10;;;1.77;;
21012;SDS011;10664;53.582;9.712;2022-11-06T11:16:22;2.77;;;1.83;;
21012;SDS011;10664;53.582;9.712;2022-11-06T11:18:49;2.27;;;2.00;;
21012;SDS011;10664;53.582;9.712;2022-11-06T11:26:26;3.17;;;2.03;;
21012;SDS011;10664;53.582;9.712;2022-11-06T11:28:54;1.90;;;1.80;;
21012;SDS011;10664;53.582;9.712;2022-11-06T11:31:26;2.60;;;1.77;;
21012;SDS011;10664;53.582;9.712;2022-11-06T11:33:53;2.67;;;2.07;;
21012;SDS011;10664;53.582;9.712;2022-11-06T11:36:20;2.53;;;2.03;;
21012;SDS011;10664;53.582;9.712;2022-11-06T11:38:46;2.00;;;1.80;;
21012;SDS011;10664;53.582;9.712;2022-11-06T11:41:13;2.27;;;1.97;;
21012;SDS011;10664;53.582;9.712;2022-11-06T11:43:40;2.00;;;1.80;;
21012;SDS011;10664;53.582;9.712;2022-11-06T11:48:43;32.37;;;19.67;;
21012;SDS011;10664;53.582;9.712;2022-11-06T11:53:41;134.37;;;51.10;;
21012;SDS011;10664;53.582;9.712;2022-11-06T11:56:07;61.90;;;26.70;;
21012;SDS011;10664;53.582;9.712;2022-11-06T11:58:38;39.83;;;17.93;;
21012;SDS011;10664;53.582;9.712;2022-11-06T12:01:05;24.93;;;11.60;;
21012;SDS011;10664;53.582;9.712;2022-11-06T12:03:33;14.13;;;8.20;;
21012;SDS011;10664;53.582;9.712;2022-11-06T12:06:06;12.13;;;6.27;;
21012;SDS011;10664;53.582;9.712;2022-11-06T12:08:32;7.95;;;5.07;;
21012;SDS011;10664;53.582;9.712;2022-11-06T12:11:02;6.43;;;3.90;;
21012;SDS011;10664;53.582;9.712;2022-11-06T12:13:28;3.70;;;2.97;;
21012;SDS011;10664;53.582;9.712;2022-11-06T12:15:58;4.07;;;2.90;;
21012;SDS011;10664;53.582;9.712;2022-11-06T12:20:59;2.25;;;2.05;;
21012;SDS011;10664;53.582;9.712;2022-11-06T12:28:36;2.20;;;1.65;;
21012;SDS011;10664;53.582;9.712;2022-11-06T12:33:48;2.13;;;1.88;;
21012;SDS011;10664;53.582;9.712;2022-11-06T12:36:16;2.50;;;1.70;;
21012;SDS011;10664;53.582;9.712;2022-11-06T12:41:15;2.00;;;1.90;;
21012;SDS011;10664;53.582;9.712;2022-11-06T12:43:45;2.33;;;1.60;;
21012;SDS011;10664;53.582;9.712;2022-11-06T12:46:15;1.70;;;1.60;;
21012;SDS011;10664;53.582;9.712;2022-11-06T12:49:02;1.75;;;1.65;;
21012;SDS011;10664;53.582;9.712;2022-11-06T12:56:55;1.63;;;1.53;;
21012;SDS011;10664;53.582;9.712;2022-11-06T12:59:41;1.77;;;1.50;;
21012;SDS011;10664;53.582;9.712;2022-11-06T13:05:17;2.00;;;1.75;;
21012;SDS011;10664;53.582;9.712;2022-11-06T13:07:45;1.73;;;1.63;;
21012;SDS011;10664;53.582;9.712;2022-11-06T13:10:18;2.23;;;1.53;;
21012;SDS011;10664;53.582;9.712;2022-11-06T13:12:49;3.57;;;1.70;;
21012;SDS011;10664;53.582;9.712;2022-11-06T13:15:41;2.87;;;1.97;;
21012;SDS011;10664;53.582;9.712;2022-11-06T13:18:19;1.87;;;1.40;;
21012;SDS011;10664;53.582;9.712;2022-11-06T13:20:51;1.57;;;1.40;;
21012;SDS011;10664;53.582;9.712;2022-11-06T13:23:28;1.43;;;1.33;;
21012;SDS011;10664;53.582;9.712;2022-11-06T13:25:59;1.60;;;1.40;;
21012;SDS011;10664;53.582;9.712;2022-11-06T13:31:00;1.50;;;1.30;;
21012;SDS011;10664;53.582;9.712;2022-11-06T13:33:32;1.67;;;1.43;;
21012;SDS011;10664;53.582;9.712;2022-11-06T13:35:59;1.77;;;1.57;;
21012;SDS011;10664;53.582;9.712;2022-11-06T13:38:27;2.60;;;2.00;;
21012;SDS011;10664;53.582;9.712;2022-11-06T13:41:01;1.90;;;1.80;;
21012;SDS011;10664;53.582;9.712;2022-11-06T13:43:34;1.83;;;1.73;;
21012;SDS011;10664;53.582;9.712;2022-11-06T13:48:34;2.27;;;1.97;;
21012;SDS011;10664;53.582;9.712;2022-11-06T13:51:03;2.00;;;1.90;;
21012;SDS011;10664;53.582;9.712;2022-11-06T13:56:05;1.80;;;1.70;;
21012;SDS011;10664;53.582;9.712;2022-11-06T14:04:27;2.00;;;1.80;;
21012;SDS011;10664;53.582;9.712;2022-11-06T14:06:56;2.17;;;1.97;;
21012;SDS011;10664;53.582;9.712;2022-11-06T14:09:23;2.83;;;2.37;;
21012;SDS011;10664;53.582;9.712;2022-11-06T14:11:54;2.40;;;1.90;;
21012;SDS011;10664;53.582;9.712;2022-11-06T14:19:31;1.90;;;1.80;;
21012;SDS011;10664;53.582;9.712;2022-11-06T14:22:16;2.03;;;1.80;;
21012;SDS011;10664;53.582;9.712;2022-11-06T14:24:42;1.90;;;1.80;;
21012;SDS011;10664;53.582;9.712;2022-11-06T14:27:11;1.73;;;1.63;;
21012;SDS011;10664;53.582;9.712;2022-11-06T14:32:04;3.22;;;2.35;;
21012;SDS011;10664;53.582;9.712;2022-11-06T14:34:32;1.93;;;1.70;;
21012;SDS011;10664;53.582;9.712;2022-11-06T14:37:43;2.10;;;1.80;;
21012;SDS011;10664;53.582;9.712;2022-11-06T14:44:55;2.23;;;1.90;;
21012;SDS011;10664;53.582;9.712;2022-11-06T14:49:52;2.43;;;2.00;;
21012;SDS011;10664;53.582;9.712;2022-11-06T14:52:18;1.90;;;1.70;;
21012;SDS011;10664;53.582;9.712;2022-11-06T14:57:44;1.93;;;1.70;;
21012;SDS011;10664;53.582;9.712;2022-11-06T15:00:12;3.30;;;2.07;;
21012;SDS011;10664;53.582;9.712;2022-11-06T15:02:38;1.93;;;1.83;;
21012;SDS011;10664;53.582;9.712;2022-11-06T15:05:06;2.97;;;2.00;;
21012;SDS011;10664;53.582;9.712;2022-11-06T15:10:03;2.00;;;1.70;;
21012;SDS011;10664;53.582;9.712;2022-11-06T15:13:02;2.30;;;2.10;;
21012;SDS011;10664;53.582;9.712;2022-11-06T15:15:18;1.90;;;1.80;;
21012;SDS011;10664;53.582;9.712;2022-11-06T15:17:44;2.97;;;1.80;;
21012;SDS011;10664;53.582;9.712;2022-11-06T15:20:14;2.00;;;1.87;;
21012;SDS011;10664;53.582;9.712;2022-11-06T15:23:06;2.40;;;1.80;;
21012;SDS011;10664;53.582;9.712;2022-11-06T15:25:31;2.27;;;2.07;;
21012;SDS011;10664;53.582;9.712;2022-11-06T15:28:10;2.07;;;1.87;;
21012;SDS011;10664;53.582;9.712;2022-11-06T15:30:47;2.43;;;2.10;;
21012;SDS011;10664;53.582;9.712;2022-11-06T15:33:16;2.17;;;1.77;;
21012;SDS011;10664;53.582;9.712;2022-11-06T15:35:43;2.00;;;1.90;;
21012;SDS011;10664;53.582;9.712;2022-11-06T15:38:15;1.83;;;1.73;;
21012;SDS011;10664;53.582;9.712;2022-11-06T15:40:41;2.40;;;2.20;;
21012;SDS011;10664;53.582;9.712;2022-11-06T15:43:12;2.17;;;1.87;;
21012;SDS011;10664;53.582;9.712;2022-11-06T15:45:42;2.60;;;2.40;;
21012;SDS011;10664;53.582;9.712;2022-11-06T15:48:17;2.33;;;2.00;;
21012;SDS011;10664;53.582;9.712;2022-11-06T15:50:44;2.40;;;2.10;;
21012;SDS011;10664;53.582;9.712;2022-11-06T15:55:36;2.63;;;2.33;;
21012;SDS011;10664;53.582;9.712;2022-11-06T16:00:41;3.33;;;2.33;;
21012;SDS011;10664;53.582;9.712;2022-11-06T16:03:08;2.80;;;2.00;;
21012;SDS011;10664;53.582;9.712;2022-11-06T16:05:35;2.53;;;2.00;;
21012;SDS011;10664;53.582;9.712;2022-11-06T16:08:02;2.40;;;2.20;;
21012;SDS011;10664;53.582;9.712;2022-11-06T16:10:29;2.27;;;2.00;;
21012;SDS011;10664;53.582;9.712;2022-11-06T16:12:55;2.30;;;2.10;;
21012;SDS011;10664;53.582;9.712;2022-11-06T16:20:48;2.47;;;2.27;;
21012;SDS011;10664;53.582;9.712;2022-11-06T16:23:17;2.40;;;2.30;;
21012;SDS011;10664;53.582;9.712;2022-11-06T16:25:44;2.67;;;2.47;;
21012;SDS011;10664;53.582;9.712;2022-11-06T16:28:14;3.37;;;2.20;;
21012;SDS011;10664;53.582;9.712;2022-11-06T16:30:40;2.70;;;2.23;;
21012;SDS011;10664;53.582;9.712;2022-11-06T16:33:12;2.40;;;2.20;;
21012;SDS011;10664;53.582;9.712;2022-11-06T16:35:43;2.40;;;2.20;;
21012;SDS011;10664;53.582;9.712;2022-11-06T16:40:48;2.80;;;2.60;;
21012;SDS011;10664;53.582;9.712;2022-11-06T16:43:15;2.87;;;2.57;;
21012;SDS011;10664;53.582;9.712;2022-11-06T16:45:50;2.70;;;2.40;;
21012;SDS011;10664;53.582;9.712;2022-11-06T16:48:33;3.27;;;2.47;;
21012;SDS011;10664;53.582;9.712;2022-11-06T16:51:04;2.40;;;2.20;;
21012;SDS011;10664;53.582;9.712;2022-11-06T16:53:31;2.20;;;2.00;;
21012;SDS011;10664;53.582;9.712;2022-11-06T16:55:59;2.53;;;2.33;;
21012;SDS011;10664;53.582;9.712;2022-11-06T16:58:26;2.53;;;2.17;;
21012;SDS011;10664;53.582;9.712;2022-11-06T17:00:56;4.00;;;2.50;;
21012;SDS011;10664;53.582;9.712;2022-11-06T17:03:23;2.40;;;2.20;;